Strona główna
METAR-TAF:

METAR-TAF

Lotnisko :

Port lotniczy Hanamaki

Hanamaki, Japonia

Szerokość geograficzna: 39-26N, Długość geograficzna: 141-08E, wysokość: 90 m

Aktualna obserwacja pogody

Raport powstał 5 godziny i 26 minut temu, godzina 10:00 UTC
Wiatr 6 kt od zachodnio-północny zachód, zmienny między zachodnio-południowy zachód i północno-północny zachód
Temperatura 15°C
Wilgotność 51%
Ciśnienie 1005 hPa
Widzialność 10 km lub więcej
Mało chmury na wysokości 4000 ft

METAR: RJSI 241000Z 30006KT 250V330 9999 FEW040 15/05 Q1005

czas: 00:26 (15:26 UTC)


TAF: brakujący

Obserwacja i prognoza pogody dla ponad 4000 lotnisk (raport METAR i TAF).

Dostępne stacje oznaczono żółtymi i czerwonymi punktami na mapie.

Najedź kursorem aby zobaczyć nazwę stacji.

Kliknij aby zobaczyć obserwacje i prognozy pogody.

Aby zmienić mapę: kliknij na zielony przycisk z czarnym krzyżykiem, aby powiększyć; na zielony przycisk z myślnikiem, aby pomniejszyć; na zielone strzałki, aby przejść do map sąsiednich.


METAR-TAF: